createdAt,value
2017-10-07T00:00:06.494Z,101059.91
2017-10-07T00:02:34.019Z,101055.62
2017-10-07T00:05:01.511Z,101057.70
2017-10-07T00:07:29.036Z,101057.07
2017-10-07T00:09:56.595Z,101056.66
2017-10-07T00:12:24.152Z,101057.91
2017-10-07T00:14:51.640Z,101050.11
2017-10-07T00:17:19.158Z,101048.05
2017-10-07T00:19:46.666Z,101052.73
2017-10-07T00:22:14.211Z,101052.62
2017-10-07T00:24:41.708Z,101050.11
2017-10-07T00:27:09.196Z,101057.67
2017-10-07T00:29:36.718Z,101050.09
2017-10-07T00:32:04.199Z,101058.92
2017-10-07T00:34:31.679Z,101057.15
2017-10-07T00:36:59.241Z,101055.68
2017-10-07T00:39:26.732Z,101058.91
2017-10-07T00:41:54.222Z,101049.67
2017-10-07T00:44:21.798Z,101051.22
2017-10-07T00:46:49.374Z,101050.61
2017-10-07T00:49:16.924Z,101047.98
2017-10-07T00:51:44.459Z,101054.26
2017-10-07T00:54:11.958Z,101054.46
2017-10-07T00:56:39.452Z,101047.48
2017-10-07T00:59:06.992Z,101056.12
2017-10-07T01:01:34.476Z,101050.94
2017-10-07T01:04:01.964Z,101055.30
2017-10-07T01:06:29.493Z,101056.42
2017-10-07T01:08:56.980Z,101054.14
2017-10-07T01:11:24.539Z,101056.53
2017-10-07T01:13:52.027Z,101044.75
2017-10-07T01:16:19.507Z,101051.78
2017-10-07T01:18:47.035Z,101053.97
2017-10-07T01:21:14.531Z,101055.94
2017-10-07T01:23:42.024Z,101063.53
2017-10-07T01:26:09.571Z,101056.22
2017-10-07T01:28:37.066Z,101054.23
2017-10-07T01:31:04.631Z,101055.99
2017-10-07T01:33:32.176Z,101052.47
2017-10-07T01:35:59.701Z,101053.70
2017-10-07T01:38:27.294Z,101051.61
2017-10-07T01:40:54.770Z,101044.91
2017-10-07T01:43:22.309Z,101055.42
2017-10-07T01:45:49.822Z,101052.39
2017-10-07T01:48:17.351Z,101054.87
2017-10-07T01:50:44.834Z,101059.66
2017-10-07T01:53:12.349Z,101061.11
2017-10-07T01:55:39.839Z,101065.80
2017-10-07T01:58:07.380Z,101055.46
2017-10-07T02:00:34.860Z,101060.37
2017-10-07T02:03:02.379Z,101052.90
2017-10-07T02:05:29.892Z,101054.05
2017-10-07T02:07:57.375Z,101051.43
2017-10-07T02:10:24.924Z,101048.19
2017-10-07T02:12:52.408Z,101047.02
2017-10-07T02:15:19.896Z,101051.20
2017-10-07T02:17:47.444Z,101055.55
2017-10-07T02:20:14.989Z,101051.49
2017-10-07T02:22:42.543Z,101054.70
2017-10-07T02:25:10.059Z,101062.20
2017-10-07T02:27:37.544Z,101059.47
2017-10-07T02:30:05.081Z,101054.47
2017-10-07T02:32:32.565Z,101054.52
2017-10-07T02:35:00.136Z,101056.81
2017-10-07T02:37:27.620Z,101055.76
2017-10-07T02:39:55.111Z,101057.94
2017-10-07T02:42:22.654Z,101063.44
2017-10-07T02:44:50.136Z,101064.91
2017-10-07T02:47:17.619Z,101061.11
2017-10-07T02:49:45.147Z,101064.97
2017-10-07T02:52:12.644Z,101060.50
2017-10-07T02:54:40.172Z,101068.20
2017-10-07T02:57:07.662Z,101059.43
2017-10-07T02:59:35.148Z,101057.92
2017-10-07T03:02:02.710Z,101060.42
2017-10-07T03:04:30.209Z,101060.19
2017-10-07T03:06:57.700Z,101063.55
2017-10-07T03:09:25.221Z,101050.49
2017-10-07T03:11:52.812Z,101063.89
2017-10-07T03:14:20.373Z,101059.94
2017-10-07T03:16:48.032Z,101065.98
2017-10-07T03:19:15.534Z,101068.04
2017-10-07T03:21:43.058Z,101071.31
2017-10-07T03:24:10.552Z,101066.47
2017-10-07T03:26:38.084Z,101062.77
2017-10-07T03:29:05.610Z,101069.01
2017-10-07T03:31:33.098Z,101072.22
2017-10-07T03:34:00.640Z,101071.36
2017-10-07T03:36:28.221Z,101074.27
2017-10-07T03:41:29.955Z,101075.95
2017-10-07T03:43:57.450Z,101072.42
2017-10-07T03:46:24.939Z,101074.27
2017-10-07T03:48:52.552Z,101075.30
2017-10-07T03:51:20.045Z,101079.16
2017-10-07T03:53:47.536Z,101081.98
2017-10-07T03:56:15.122Z,101081.25
2017-10-07T03:58:42.620Z,101079.69
2017-10-07T04:01:10.112Z,101073.82
2017-10-07T04:03:37.654Z,101083.02
2017-10-07T04:06:05.139Z,101085.90
2017-10-07T04:08:32.630Z,101083.06
2017-10-07T04:11:00.178Z,101087.74
2017-10-07T04:13:27.752Z,101095.38
2017-10-07T04:15:55.294Z,101094.94
2017-10-07T04:18:23.200Z,101091.69
2017-10-07T04:20:50.688Z,101097.44
2017-10-07T04:23:18.183Z,101100.80
2017-10-07T04:25:45.691Z,101093.81
2017-10-07T04:28:13.213Z,101091.31
2017-10-07T04:30:40.851Z,101090.73
2017-10-07T04:33:08.339Z,101087.02
2017-10-07T04:35:35.876Z,101094.65
2017-10-07T04:38:03.412Z,101089.05
2017-10-07T04:40:30.985Z,101087.94
2017-10-07T04:42:58.501Z,101092.33
2017-10-07T04:45:26.022Z,101093.47
2017-10-07T04:47:53.511Z,101098.27
2017-10-07T04:50:21.011Z,101100.06
2017-10-07T04:52:48.547Z,101103.72
2017-10-07T04:55:16.036Z,101098.48
2017-10-07T04:57:43.521Z,101099.95
2017-10-07T05:00:11.072Z,101092.56
2017-10-07T05:02:38.554Z,101096.62
2017-10-07T05:05:06.092Z,101097.86
2017-10-07T05:07:33.608Z,101107.02
2017-10-07T05:10:01.083Z,101095.88
2017-10-07T05:12:28.640Z,101097.53
2017-10-07T05:14:56.397Z,101106.07
2017-10-07T05:17:23.974Z,101094.83
2017-10-07T05:19:51.456Z,101098.56
2017-10-07T05:22:19.081Z,101103.87
2017-10-07T05:24:46.569Z,101098.33
2017-10-07T05:27:14.062Z,101097.72
2017-10-07T05:29:41.595Z,101098.16
2017-10-07T05:32:09.123Z,101104.69
2017-10-07T05:34:36.609Z,101108.25
2017-10-07T05:37:04.120Z,101110.52
2017-10-07T05:39:31.617Z,101112.17
2017-10-07T05:41:59.184Z,101107.58
2017-10-07T05:44:26.679Z,101111.76
2017-10-07T05:46:54.166Z,101114.87
2017-10-07T05:49:21.682Z,101117.85
2017-10-07T05:51:49.174Z,101118.88
2017-10-07T05:54:16.707Z,101116.50
2017-10-07T05:56:44.190Z,101113.91
2017-10-07T05:59:11.680Z,101115.77
2017-10-07T06:01:39.227Z,101108.34
2017-10-07T06:04:06.752Z,101100.45
2017-10-07T06:06:34.264Z,101106.52
2017-10-07T06:09:01.757Z,101106.90
2017-10-07T06:11:29.264Z,101105.30
2017-10-07T06:13:56.811Z,101108.48
2017-10-07T06:16:24.318Z,101100.96
2017-10-07T06:18:51.823Z,101105.84
2017-10-07T06:21:19.310Z,101105.97
2017-10-07T06:23:46.824Z,101113.08
2017-10-07T06:26:14.420Z,101110.16
2017-10-07T06:28:41.914Z,101106.80
2017-10-07T06:31:09.436Z,101112.22
2017-10-07T06:33:36.981Z,101116.41
2017-10-07T06:36:04.471Z,101113.73
2017-10-07T06:38:32.013Z,101113.28
2017-10-07T06:40:59.505Z,101109.25
2017-10-07T06:43:26.996Z,101106.30
2017-10-07T06:45:54.777Z,101110.98
2017-10-07T06:48:22.273Z,101106.50
2017-10-07T06:50:49.767Z,101107.41
2017-10-07T06:53:17.470Z,101106.70
2017-10-07T06:55:44.958Z,101106.39
2017-10-07T06:58:12.466Z,101113.28
2017-10-07T07:00:40.003Z,101112.95
2017-10-07T07:03:07.508Z,101113.95
2017-10-07T07:05:34.998Z,101117.36
2017-10-07T07:08:02.705Z,101115.67
2017-10-07T07:10:30.195Z,101112.72
2017-10-07T07:12:57.691Z,101119.25
2017-10-07T07:15:25.220Z,101117.37
2017-10-07T07:17:52.767Z,101118.59
2017-10-07T07:20:20.265Z,101120.61
2017-10-07T07:22:47.762Z,101115.52
2017-10-07T07:25:15.332Z,101116.20
2017-10-07T07:27:42.815Z,101116.20
2017-10-07T07:30:10.312Z,101120.30
2017-10-07T07:32:37.853Z,101115.89
2017-10-07T07:35:05.446Z,101120.75
2017-10-07T07:37:32.940Z,101119.36
2017-10-07T07:40:00.484Z,101122.28
2017-10-07T07:42:27.975Z,101118.45
2017-10-07T07:44:55.477Z,101116.05
2017-10-07T07:47:23.014Z,101116.08
2017-10-07T07:49:50.512Z,101118.73
2017-10-07T07:52:18.004Z,101116.30
2017-10-07T07:54:45.507Z,101111.80
2017-10-07T07:57:13.033Z,101112.87
2017-10-07T07:59:40.537Z,101106.31
2017-10-07T08:02:08.091Z,101106.89
2017-10-07T08:04:35.644Z,101107.38
2017-10-07T08:07:03.144Z,101104.81
2017-10-07T08:09:30.639Z,101100.19
2017-10-07T08:11:58.202Z,101111.70
2017-10-07T08:14:25.696Z,101099.62
2017-10-07T08:16:53.179Z,101109.42
2017-10-07T08:19:20.689Z,101103.44
2017-10-07T08:21:48.174Z,101108.19
2017-10-07T08:24:15.721Z,101103.92
2017-10-07T08:26:43.213Z,101101.05
2017-10-07T08:29:10.700Z,101099.61
2017-10-07T08:31:38.415Z,101098.40
2017-10-07T08:34:05.905Z,101101.63
2017-10-07T08:36:33.395Z,101097.36
2017-10-07T08:39:00.974Z,101101.03
2017-10-07T08:41:28.467Z,101098.52
2017-10-07T08:43:55.963Z,101099.05
2017-10-07T08:46:23.544Z,101089.22
2017-10-07T08:48:51.105Z,101090.03
2017-10-07T08:51:18.637Z,101081.81
2017-10-07T08:53:46.172Z,101093.36
2017-10-07T08:56:13.691Z,101087.11
2017-10-07T08:58:41.175Z,101080.02
2017-10-07T09:01:08.704Z,101088.45
2017-10-07T09:03:36.248Z,101084.14
2017-10-07T09:06:03.735Z,101077.27
2017-10-07T09:08:31.222Z,101075.62
2017-10-07T09:10:58.760Z,101068.59
2017-10-07T09:13:26.292Z,101065.69
2017-10-07T09:15:53.780Z,101066.91
2017-10-07T09:18:21.298Z,101058.88
2017-10-07T09:20:48.785Z,101056.83
2017-10-07T09:23:16.426Z,101057.05
2017-10-07T09:25:43.917Z,101050.53
2017-10-07T09:28:11.413Z,101049.53
2017-10-07T09:30:39.008Z,101048.24
2017-10-07T09:33:06.501Z,101045.80
2017-10-07T09:35:34.016Z,101038.92
2017-10-07T09:38:01.542Z,101032.33
2017-10-07T09:40:29.063Z,101032.53
2017-10-07T09:42:56.556Z,101035.36
2017-10-07T09:45:24.073Z,101032.10
2017-10-07T09:47:51.556Z,101033.32
2017-10-07T09:50:19.110Z,101022.69
2017-10-07T09:52:46.619Z,101023.78
2017-10-07T09:55:14.109Z,101021.28
2017-10-07T09:57:41.626Z,101013.05
2017-10-07T10:00:09.113Z,101014.73
2017-10-07T10:02:36.643Z,101013.58
2017-10-07T10:05:04.188Z,101016.36
2017-10-07T10:07:31.677Z,101022.73
2017-10-07T10:09:59.164Z,101023.42
2017-10-07T10:12:26.688Z,101016.02
2017-10-07T10:14:54.175Z,101023.05
2017-10-07T10:17:21.713Z,101015.11
2017-10-07T10:19:49.212Z,101012.59
2017-10-07T10:22:16.691Z,101005.64
2017-10-07T10:24:44.279Z,101002.19
2017-10-07T10:27:11.767Z,101010.83
2017-10-07T10:29:39.253Z,100997.84
2017-10-07T10:32:06.852Z,100997.21
2017-10-07T10:34:34.619Z,100998.62
2017-10-07T10:37:02.197Z,100996.81
2017-10-07T10:39:29.680Z,100985.41
2017-10-07T10:41:57.267Z,100988.42
2017-10-07T10:44:24.749Z,100983.98
2017-10-07T10:46:52.239Z,100979.95
2017-10-07T10:49:19.976Z,100979.14
2017-10-07T10:51:47.460Z,100967.05
2017-10-07T10:54:14.997Z,100972.56
2017-10-07T10:56:42.548Z,100965.33
2017-10-07T10:59:10.041Z,100967.69
2017-10-07T11:01:37.528Z,100965.36
2017-10-07T11:04:05.124Z,100960.89
2017-10-07T11:06:32.611Z,100958.73
2017-10-07T11:09:00.161Z,100956.38
2017-10-07T11:11:27.658Z,100957.81
2017-10-07T11:13:55.159Z,100967.49
2017-10-07T11:16:22.683Z,100956.69
2017-10-07T11:18:50.183Z,100947.44
2017-10-07T11:21:17.735Z,100949.15
2017-10-07T11:23:45.264Z,100943.89
2017-10-07T11:26:12.786Z,100935.39
2017-10-07T11:28:40.284Z,100932.77
2017-10-07T11:31:07.869Z,100922.80
2017-10-07T11:33:35.391Z,100926.43
2017-10-07T11:36:02.878Z,100917.95
2017-10-07T11:38:30.425Z,100916.62
2017-10-07T11:40:57.920Z,100909.36
2017-10-07T11:43:25.403Z,100903.27
2017-10-07T11:45:52.940Z,100904.95
2017-10-07T11:48:20.471Z,100897.36
2017-10-07T11:50:47.963Z,100893.28
2017-10-07T11:53:15.551Z,100890.56
2017-10-07T11:55:43.072Z,100887.03
2017-10-07T11:58:10.559Z,100888.24
2017-10-07T12:00:38.099Z,100881.14
2017-10-07T12:03:05.609Z,100870.33
2017-10-07T12:05:33.112Z,100877.70
2017-10-07T12:08:00.765Z,100863.91
2017-10-07T12:10:28.255Z,100867.58
2017-10-07T12:12:55.777Z,100861.75
2017-10-07T12:15:23.531Z,100859.52
2017-10-07T12:17:51.033Z,100854.35
2017-10-07T12:20:18.549Z,100851.69
2017-10-07T12:22:46.084Z,100847.08
2017-10-07T12:25:13.614Z,100840.36
2017-10-07T12:27:41.104Z,100827.87
2017-10-07T12:30:08.596Z,100836.25
2017-10-07T12:32:36.340Z,100827.54
2017-10-07T12:35:03.835Z,100825.53
2017-10-07T12:37:31.331Z,100824.58
2017-10-07T12:39:58.876Z,100825.27
2017-10-07T12:42:26.368Z,100814.92
2017-10-07T12:44:53.897Z,100817.70
2017-10-07T12:47:21.435Z,100812.91
2017-10-07T12:49:48.930Z,100810.25
2017-10-07T12:52:17.210Z,100796.03
2017-10-07T12:54:44.746Z,100796.28
2017-10-07T12:57:12.243Z,100788.23
2017-10-07T12:59:39.796Z,100792.56
2017-10-07T13:02:07.280Z,100783.78
2017-10-07T13:04:34.763Z,100780.74
2017-10-07T13:07:02.310Z,100782.75
2017-10-07T13:09:29.835Z,100773.52
2017-10-07T13:11:57.331Z,100773.77
2017-10-07T13:14:24.857Z,100768.46
2017-10-07T13:16:52.382Z,100767.53
2017-10-07T13:19:19.920Z,100765.05
2017-10-07T13:21:47.432Z,100760.96
2017-10-07T13:24:14.920Z,100757.96
2017-10-07T13:26:42.467Z,100758.56
2017-10-07T13:29:09.958Z,100745.63
2017-10-07T13:31:37.439Z,100744.41
2017-10-07T13:34:04.962Z,100735.33
2017-10-07T13:36:32.456Z,100743.98
2017-10-07T13:39:00.052Z,100729.56
2017-10-07T13:41:27.560Z,100725.24
2017-10-07T13:43:55.099Z,100724.05
2017-10-07T13:46:22.586Z,100713.56
2017-10-07T13:48:50.092Z,100725.61
2017-10-07T13:51:17.627Z,100722.12
2017-10-07T13:53:45.111Z,100721.70
2017-10-07T13:56:12.662Z,100717.19
2017-10-07T13:58:40.151Z,100711.84
2017-10-07T14:01:07.662Z,100707.32
2017-10-07T14:03:35.323Z,100700.05
2017-10-07T14:06:02.879Z,100696.59
2017-10-07T14:08:30.374Z,100694.21
2017-10-07T14:10:57.893Z,100681.82
2017-10-07T14:13:25.389Z,100685.55
2017-10-07T14:15:52.918Z,100679.46
2017-10-07T14:18:20.491Z,100669.37
2017-10-07T14:20:47.989Z,100669.66
2017-10-07T14:23:15.526Z,100665.47
2017-10-07T14:25:43.014Z,100658.98
2017-10-07T14:28:10.608Z,100651.13
2017-10-07T14:30:38.151Z,100644.64
2017-10-07T14:33:05.688Z,100642.56
2017-10-07T14:35:33.187Z,100639.58
2017-10-07T14:38:00.790Z,100636.42
2017-10-07T14:40:28.285Z,100621.70
2017-10-07T14:42:55.828Z,100620.53
2017-10-07T14:45:23.319Z,100609.02
2017-10-07T14:47:50.827Z,100605.95
2017-10-07T14:50:19.156Z,100610.74
2017-10-07T14:52:46.641Z,100604.00
2017-10-07T14:55:14.139Z,100599.46
2017-10-07T14:57:41.682Z,100595.58
2017-10-07T15:00:09.171Z,100583.66
2017-10-07T15:02:36.662Z,100582.65
2017-10-07T15:05:04.188Z,100574.17
2017-10-07T15:07:31.672Z,100564.31
2017-10-07T15:09:59.161Z,100564.37
2017-10-07T15:12:26.701Z,100571.91
2017-10-07T15:14:54.183Z,100567.38
2017-10-07T15:17:21.691Z,100566.50
2017-10-07T15:19:49.253Z,100560.77
2017-10-07T15:22:16.750Z,100555.34
2017-10-07T15:24:44.266Z,100555.34
2017-10-07T15:27:11.783Z,100549.33
2017-10-07T15:29:39.267Z,100544.22
2017-10-07T15:32:06.944Z,100536.66
2017-10-07T15:34:34.503Z,100532.81
2017-10-07T15:37:02.001Z,100522.12
2017-10-07T15:39:29.628Z,100510.62
2017-10-07T15:41:57.119Z,100515.03
2017-10-07T15:44:24.615Z,100498.95
2017-10-07T15:46:52.215Z,100501.93
2017-10-07T15:49:19.707Z,100501.93
2017-10-07T15:51:47.222Z,100490.31
2017-10-07T15:54:14.792Z,100486.12
2017-10-07T15:56:42.286Z,100490.50
2017-10-07T15:59:09.822Z,100482.84
2017-10-07T16:01:37.317Z,100470.44
2017-10-07T16:04:04.809Z,100474.66
2017-10-07T16:06:32.368Z,100474.95
2017-10-07T16:08:59.919Z,100467.12
2017-10-07T16:11:27.504Z,100461.33
2017-10-07T16:13:54.987Z,100463.63
2017-10-07T16:16:22.692Z,100454.49
2017-10-07T16:18:50.204Z,100435.75
2017-10-07T16:21:17.693Z,100449.77
2017-10-07T16:23:45.219Z,100441.99
2017-10-07T16:26:12.704Z,100442.88
2017-10-07T16:28:40.187Z,100433.17
2017-10-07T16:31:07.695Z,100429.55
2017-10-07T16:33:35.231Z,100428.27
2017-10-07T16:36:03.100Z,100423.64
2017-10-07T16:38:30.583Z,100418.95
2017-10-07T16:40:58.098Z,100412.08
2017-10-07T16:43:25.623Z,100418.25
2017-10-07T16:45:53.108Z,100405.50
2017-10-07T16:48:20.593Z,100401.66
2017-10-07T16:50:48.135Z,100391.78
2017-10-07T16:53:15.626Z,100390.05
2017-10-07T16:55:43.115Z,100388.45
2017-10-07T16:58:10.721Z,100387.50
2017-10-07T17:00:38.260Z,100384.77
2017-10-07T17:03:05.832Z,100374.46
2017-10-07T17:05:33.367Z,100371.97
2017-10-07T17:08:00.858Z,100370.56
2017-10-07T17:10:28.340Z,100366.22
2017-10-07T17:12:55.877Z,100354.57
2017-10-07T17:15:23.383Z,100353.81
2017-10-07T17:17:50.875Z,100342.43
2017-10-07T17:20:18.445Z,100342.67
2017-10-07T17:22:45.995Z,100345.69
2017-10-07T17:25:13.488Z,100337.91
2017-10-07T17:27:41.195Z,100336.02
2017-10-07T17:30:08.679Z,100326.35
2017-10-07T17:32:36.162Z,100338.66
2017-10-07T17:35:03.899Z,100332.78
2017-10-07T17:37:31.443Z,100327.73
2017-10-07T17:39:59.015Z,100330.18
2017-10-07T17:42:26.540Z,100322.88
2017-10-07T17:44:54.124Z,100323.19
2017-10-07T17:47:21.695Z,100310.70
2017-10-07T17:49:49.241Z,100309.66
2017-10-07T17:52:16.725Z,100307.55
2017-10-07T17:54:44.254Z,100305.34
2017-10-07T17:57:11.806Z,100304.47
2017-10-07T17:59:39.289Z,100300.88
2017-10-07T18:02:06.772Z,100302.36
2017-10-07T18:04:34.299Z,100298.70
2017-10-07T18:07:01.849Z,100297.64
2017-10-07T18:09:29.335Z,100296.82
2017-10-07T18:11:56.891Z,100290.83
2017-10-07T18:14:24.377Z,100285.83
2017-10-07T18:16:51.859Z,100289.95
2017-10-07T18:19:19.464Z,100291.70
2017-10-07T18:21:46.976Z,100286.16
2017-10-07T18:24:14.473Z,100274.74
2017-10-07T18:26:41.984Z,100271.11
2017-10-07T18:29:09.519Z,100274.00
2017-10-07T18:31:37.014Z,100266.88
2017-10-07T18:34:04.599Z,100263.91
2017-10-07T18:36:32.112Z,100264.93
2017-10-07T18:38:59.618Z,100258.45
2017-10-07T18:41:27.105Z,100251.78
2017-10-07T18:43:54.644Z,100250.34
2017-10-07T18:46:22.208Z,100252.51
2017-10-07T18:48:49.767Z,100251.49
2017-10-07T18:51:17.315Z,100239.25
2017-10-07T18:53:44.820Z,100240.73
2017-10-07T18:56:12.307Z,100251.23
2017-10-07T18:58:40.004Z,100240.63
2017-10-07T19:01:07.488Z,100240.81
2017-10-07T19:03:34.975Z,100237.34
2017-10-07T19:06:02.766Z,100226.42
2017-10-07T19:08:30.246Z,100214.91
2017-10-07T19:10:57.728Z,100216.48
2017-10-07T19:13:25.257Z,100227.27
2017-10-07T19:15:52.819Z,100216.95
2017-10-07T19:18:20.350Z,100208.20
2017-10-07T19:20:47.875Z,100209.78
2017-10-07T19:23:15.356Z,100205.77
2017-10-07T19:25:42.840Z,100198.39
2017-10-07T19:28:10.414Z,100195.59
2017-10-07T19:30:37.907Z,100204.06
2017-10-07T19:33:05.426Z,100195.78
2017-10-07T19:35:32.954Z,100193.20
2017-10-07T19:38:00.445Z,100197.45
2017-10-07T19:40:27.950Z,100192.31
2017-10-07T19:42:55.535Z,100184.78
2017-10-07T19:45:23.035Z,100188.25
2017-10-07T19:47:50.578Z,100183.25
2017-10-07T19:50:18.094Z,100178.19
2017-10-07T19:52:45.581Z,100172.91
2017-10-07T19:55:13.143Z,100173.38
2017-10-07T19:57:40.696Z,100166.48
2017-10-07T20:00:08.254Z,100165.73
2017-10-07T20:02:35.751Z,100164.47
2017-10-07T20:05:03.231Z,100168.53
2017-10-07T20:07:30.752Z,100160.27
2017-10-07T20:09:58.231Z,100153.37
2017-10-07T20:12:25.716Z,100150.53
2017-10-07T20:14:53.240Z,100145.37
2017-10-07T20:17:20.734Z,100152.65
2017-10-07T20:19:48.338Z,100138.32
2017-10-07T20:22:15.879Z,100138.02
2017-10-07T20:24:43.369Z,100134.90
2017-10-07T20:27:11.096Z,100134.30
2017-10-07T20:29:39.583Z,100140.72
2017-10-07T20:32:07.079Z,100143.07
2017-10-07T20:34:34.796Z,100134.39
2017-10-07T20:37:02.284Z,100137.73
2017-10-07T20:39:29.769Z,100137.73
2017-10-07T20:41:57.385Z,100132.45
2017-10-07T20:44:25.154Z,100139.21
2017-10-07T20:46:52.626Z,100127.85
2017-10-07T20:49:20.108Z,100129.09
2017-10-07T20:51:47.644Z,100127.48
2017-10-07T20:54:15.138Z,100114.73
2017-10-07T20:56:42.620Z,100114.20
2017-10-07T20:59:10.144Z,100105.27
2017-10-07T21:01:37.667Z,100113.66
2017-10-07T21:04:05.147Z,100100.25
2017-10-07T21:06:32.891Z,100103.91
2017-10-07T21:09:00.428Z,100102.61
2017-10-07T21:11:27.918Z,100100.92
2017-10-07T21:13:55.527Z,100100.69
2017-10-07T21:16:23.006Z,100090.51
2017-10-07T21:18:50.495Z,100093.65
2017-10-07T21:21:18.022Z,100084.17
2017-10-07T21:23:45.503Z,100072.66
2017-10-07T21:26:12.987Z,100081.01
2017-10-07T21:28:40.533Z,100071.31
2017-10-07T21:31:08.015Z,100079.17
2017-10-07T21:33:35.497Z,100070.01
2017-10-07T21:36:03.066Z,100064.34
2017-10-07T21:38:30.563Z,100064.64
2017-10-07T21:40:58.078Z,100067.53
2017-10-07T21:43:25.578Z,100059.78
2017-10-07T21:45:53.065Z,100059.02
2017-10-07T21:48:20.578Z,100051.72
2017-10-07T21:50:48.108Z,100053.84
2017-10-07T21:53:15.625Z,100056.27
2017-10-07T21:55:43.109Z,100050.72
2017-10-07T21:58:10.591Z,100048.19
2017-10-07T22:00:38.111Z,100044.80
2017-10-07T22:03:05.599Z,100053.52
2017-10-07T22:05:33.088Z,100045.52
2017-10-07T22:08:00.638Z,100044.72
2017-10-07T22:10:28.120Z,100045.92
2017-10-07T22:12:55.605Z,100046.16
2017-10-07T22:15:23.202Z,100029.02
2017-10-07T22:17:50.683Z,100035.47
2017-10-07T22:20:18.159Z,100033.58
2017-10-07T22:22:45.771Z,100035.75
2017-10-07T22:25:13.256Z,100031.92
2017-10-07T22:27:40.771Z,100026.22
2017-10-07T22:30:08.479Z,100030.73
2017-10-07T22:32:35.990Z,100032.59
2017-10-07T22:35:03.475Z,100033.41
2017-10-07T22:37:31.022Z,100024.05
2017-10-07T22:39:58.498Z,100024.19
2017-10-07T22:42:25.994Z,100023.65
2017-10-07T22:44:53.504Z,100021.35
2017-10-07T22:47:20.983Z,100016.58
2017-10-07T22:49:48.494Z,100015.94
2017-10-07T22:52:16.068Z,100013.95
2017-10-07T22:54:43.630Z,100026.77
2017-10-07T22:57:11.421Z,100021.13
2017-10-07T22:59:38.901Z,100021.89
2017-10-07T23:02:06.414Z,100027.26
2017-10-07T23:04:33.974Z,100027.66
2017-10-07T23:07:01.527Z,100020.94
2017-10-07T23:09:29.087Z,100013.50
2017-10-07T23:11:56.596Z,100023.34
2017-10-07T23:14:24.119Z,100015.22
2017-10-07T23:16:51.604Z,100016.75
2017-10-07T23:19:19.141Z,100017.55
2017-10-07T23:21:46.624Z,100011.36
2017-10-07T23:24:14.135Z,100008.52
2017-10-07T23:26:41.662Z,100011.64
2017-10-07T23:29:09.179Z,100007.58
2017-10-07T23:31:36.655Z,100011.05
2017-10-07T23:34:04.195Z,100004.59
2017-10-07T23:36:31.736Z,100008.83
2017-10-07T23:38:59.297Z,100009.00
2017-10-07T23:41:27.060Z,99999.45
2017-10-07T23:43:54.619Z,100002.87
2017-10-07T23:46:22.180Z,100004.94
2017-10-07T23:48:49.709Z,100006.20
2017-10-07T23:51:17.198Z,100002.01
2017-10-07T23:53:44.772Z,100004.08
2017-10-07T23:56:12.282Z,100010.58
2017-10-07T23:58:39.777Z,100009.36
